Time;durP1;ratioP1;P1;durP2;ratioP2;P2;SDS_P1;SDS_P2;PMS_P1;PMS_P2;Temp;Humidity;BMP_temperature;BMP_pressure;BME280_temperature;BME280_humidity;BME280_pressure;Samples;Min_cycle;Max_cycle;Signal;HPM_P1;HPM_P2
2022/04/23 00:01:06;;;;;;;17.00;10.67;;;11.60;99.90;;;;;;5010150;28;20525;-70
2022/04/23 00:03:33;;;;;;;6.90;5.53;;;11.50;99.90;;;;;;5009925;28;20509;-68
2022/04/23 00:06:00;;;;;;;22.03;11.40;;;11.50;99.90;;;;;;5009473;28;20593;-68
2022/04/23 00:08:27;;;;;;;12.27;8.70;;;11.50;99.90;;;;;;5015624;28;20457;-69
2022/04/23 00:10:54;;;;;;;13.67;10.60;;;11.40;99.90;;;;;;5013312;28;20463;-69
2022/04/23 00:13:21;;;;;;;11.30;6.90;;;11.30;99.90;;;;;;5006614;28;20459;-68
2022/04/23 00:15:47;;;;;;;18.00;11.90;;;11.30;99.90;;;;;;5014399;28;20457;-69
2022/04/23 00:18:15;;;;;;;16.57;10.37;;;11.30;99.90;;;;;;5021124;28;20456;-70
2022/04/23 00:20:42;;;;;;;13.57;8.60;;;11.30;99.90;;;;;;5012281;28;20476;-68
2022/04/23 00:23:10;;;;;;;10.73;7.60;;;11.30;99.90;;;;;;5017992;28;21105;-69
2022/04/23 00:25:38;;;;;;;8.40;6.47;;;11.20;99.90;;;;;;5008219;28;20987;-70
2022/04/23 00:28:05;;;;;;;20.67;10.53;;;11.20;99.90;;;;;;4999682;28;20829;-71
2022/04/23 00:30:32;;;;;;;16.67;10.43;;;11.20;99.90;;;;;;5008669;28;21017;-71
2022/04/23 00:32:59;;;;;;;19.10;10.77;;;11.20;99.90;;;;;;5009487;28;21042;-71
2022/04/23 00:35:27;;;;;;;19.80;10.70;;;11.20;99.90;;;;;;5017305;28;20472;-69
2022/04/23 00:37:53;;;;;;;13.23;6.27;;;11.20;99.90;;;;;;5015351;28;21222;-70
2022/04/23 00:40:24;;;;;;;15.90;9.27;;;11.20;99.90;;;;;;5010605;28;20462;-71
2022/04/23 00:42:53;;;;;;;15.00;12.13;;;11.20;99.90;;;;;;5016420;28;20435;-70
2022/04/23 00:45:19;;;;;;;20.90;10.80;;;11.20;99.90;;;;;;5022027;28;20989;-70
2022/04/23 00:47:46;;;;;;;16.23;10.50;;;11.10;99.90;;;;;;5016804;28;20534;-71
2022/04/23 00:50:13;;;;;;;29.37;12.20;;;11.10;99.90;;;;;;5016574;28;20550;-71
2022/04/23 00:52:41;;;;;;;17.90;9.60;;;11.10;99.90;;;;;;5015330;28;20460;-70
2022/04/23 00:55:09;;;;;;;19.27;11.20;;;11.10;99.90;;;;;;5010755;28;20469;-70
2022/04/23 00:57:36;;;;;;;16.23;11.83;;;11.10;99.90;;;;;;5010127;28;20432;-70
2022/04/23 01:00:06;;;;;;;17.40;10.90;;;11.00;99.90;;;;;;5014122;28;20535;-70
2022/04/23 01:02:33;;;;;;;24.40;14.30;;;11.00;99.90;;;;;;5009220;28;20443;-70
2022/04/23 01:05:00;;;;;;;25.70;13.90;;;11.00;99.90;;;;;;5008394;28;21205;-70
2022/04/23 01:07:27;;;;;;;16.97;9.23;;;11.10;99.90;;;;;;5012771;28;20547;-71
2022/04/23 01:09:55;;;;;;;17.00;12.23;;;11.00;99.90;;;;;;5011915;28;20851;-70
2022/04/23 01:12:22;;;;;;;15.70;11.60;;;11.00;99.90;;;;;;5013338;28;20839;-70
2022/04/23 01:14:58;;;;;;;15.73;9.07;;;10.90;99.90;;;;;;5012715;28;20447;-71
2022/04/23 01:17:25;;;;;;;12.53;8.57;;;10.90;99.90;;;;;;5010594;28;20459;-70
2022/04/23 01:19:52;;;;;;;14.80;9.70;;;10.90;99.90;;;;;;5013098;28;20483;-70
2022/04/23 01:22:20;;;;;;;21.73;9.70;;;11.00;99.90;;;;;;5014052;28;20542;-69
2022/04/23 01:24:50;;;;;;;24.90;11.63;;;10.90;99.90;;;;;;5017983;28;20482;-69
2022/04/23 01:27:16;;;;;;;8.90;7.00;;;10.90;99.90;;;;;;5014814;28;20466;-69
2022/04/23 01:29:43;;;;;;;12.73;10.23;;;10.90;99.90;;;;;;5005345;28;20512;-69
2022/04/23 01:32:10;;;;;;;18.53;11.10;;;10.90;99.90;;;;;;5012387;28;20435;-70
2022/04/23 01:34:37;;;;;;;13.37;8.57;;;10.90;99.90;;;;;;5009546;28;20470;-69
2022/04/23 01:37:04;;;;;;;18.13;10.40;;;10.80;99.90;;;;;;5009017;28;21027;-70
2022/04/23 01:39:32;;;;;;;9.83;7.17;;;10.80;99.90;;;;;;5009008;28;20465;-69
2022/04/23 01:41:59;;;;;;;15.60;9.10;;;10.80;99.90;;;;;;5013927;28;20452;-70
2022/04/23 01:44:25;;;;;;;9.40;6.27;;;10.80;99.90;;;;;;5018400;28;20567;-70
2022/04/23 01:46:52;;;;;;;14.90;8.33;;;10.80;99.90;;;;;;5011639;28;20461;-70
2022/04/23 01:49:19;;;;;;;14.70;10.57;;;10.90;99.90;;;;;;5012167;28;20536;-70
2022/04/23 01:51:46;;;;;;;9.70;4.77;;;10.80;99.90;;;;;;5009962;28;20460;-70
2022/04/23 01:54:13;;;;;;;24.10;12.40;;;10.80;99.90;;;;;;5018183;28;20463;-72
2022/04/23 01:56:41;;;;;;;14.43;8.97;;;10.80;99.90;;;;;;5020203;28;20492;-70
2022/04/23 01:59:08;;;;;;;17.03;9.53;;;10.90;99.90;;;;;;5014608;28;20502;-71
2022/04/23 02:01:35;;;;;;;16.00;10.67;;;10.80;99.90;;;;;;5013390;28;20492;-71
2022/04/23 02:06:34;;;;;;;17.00;10.87;;;10.80;99.90;;;;;;5020880;28;20486;-74
2022/04/23 02:09:01;;;;;;;14.07;9.93;;;10.80;99.90;;;;;;5030756;28;21038;-71
2022/04/23 02:11:28;;;;;;;8.80;6.70;;;10.80;99.90;;;;;;5032520;28;20456;-70
2022/04/23 02:13:56;;;;;;;22.10;11.37;;;10.80;99.90;;;;;;5044888;28;20425;-71
2022/04/23 02:16:23;;;;;;;7.10;5.17;;;10.80;99.90;;;;;;5037374;28;20472;-71
2022/04/23 02:18:50;;;;;;;13.90;9.20;;;10.80;99.90;;;;;;5046166;28;20504;-71
2022/04/23 02:21:17;;;;;;;14.60;10.50;;;10.80;99.90;;;;;;5042621;28;20475;-70
2022/04/23 02:23:43;;;;;;;7.20;5.73;;;10.80;99.90;;;;;;5037318;28;24663;-72
2022/04/23 02:26:10;;;;;;;16.77;12.80;;;10.80;99.90;;;;;;5035692;28;20480;-72
2022/04/23 02:28:38;;;;;;;13.50;9.60;;;10.90;99.90;;;;;;5028939;28;20431;-71
2022/04/23 02:31:07;;;;;;;16.90;10.13;;;10.90;99.90;;;;;;5017662;28;20465;-72
2022/04/23 02:33:34;;;;;;;14.90;10.93;;;11.00;99.90;;;;;;5014541;28;20460;-72
2022/04/23 02:36:06;;;;;;;11.83;8.70;;;11.00;99.90;;;;;;5021796;28;20496;-71
2022/04/23 02:38:39;;;;;;;13.97;10.87;;;11.10;99.90;;;;;;5026166;28;20830;-71
2022/04/23 02:41:06;;;;;;;12.20;6.80;;;11.10;99.90;;;;;;5027213;28;20894;-72
2022/04/23 02:43:38;;;;;;;12.80;6.90;;;11.20;99.90;;;;;;5028961;28;20469;-71
2022/04/23 02:46:06;;;;;;;16.60;11.97;;;11.20;99.90;;;;;;5024249;28;20476;-71
2022/04/23 02:48:33;;;;;;;14.30;8.70;;;11.30;99.90;;;;;;5016381;28;20459;-71
2022/04/23 02:51:00;;;;;;;24.43;13.40;;;11.30;99.90;;;;;;5021606;28;20455;-70
2022/04/23 02:53:30;;;;;;;13.00;7.27;;;11.30;99.90;;;;;;5023453;28;20532;-71
2022/04/23 02:55:56;;;;;;;10.53;7.10;;;11.30;99.90;;;;;;5014161;28;20530;-70
2022/04/23 02:58:25;;;;;;;14.07;10.13;;;11.20;99.90;;;;;;5025047;28;21144;-70
2022/04/23 03:00:53;;;;;;;12.57;8.20;;;11.20;99.90;;;;;;5023536;28;20487;-71
2022/04/23 03:03:21;;;;;;;13.90;9.10;;;11.20;99.90;;;;;;5022827;28;20460;-71
2022/04/23 03:05:49;;;;;;;14.27;7.93;;;11.20;99.90;;;;;;5016531;28;20493;-72
2022/04/23 03:08:15;;;;;;;18.80;10.17;;;11.20;99.90;;;;;;5025064;28;20459;-71
2022/04/23 03:10:43;;;;;;;7.63;6.80;;;11.20;99.90;;;;;;5047404;28;20467;-70
2022/04/23 03:13:10;;;;;;;20.33;10.73;;;11.10;99.90;;;;;;5043564;28;20809;-71
2022/04/23 03:15:38;;;;;;;13.37;8.17;;;11.10;99.90;;;;;;5035060;28;20450;-71
2022/04/23 03:18:07;;;;;;;19.67;9.47;;;11.10;99.90;;;;;;5036447;28;20474;-71
2022/04/23 03:20:36;;;;;;;18.57;12.73;;;11.10;99.90;;;;;;5043238;28;20482;-71
2022/04/23 03:23:04;;;;;;;19.53;11.90;;;11.10;99.90;;;;;;5039874;28;20438;-71
2022/04/23 03:25:32;;;;;;;13.43;9.07;;;11.10;99.90;;;;;;5034839;28;20573;-71
2022/04/23 03:27:59;;;;;;;18.00;11.33;;;11.10;99.90;;;;;;5034297;28;20494;-71
2022/04/23 03:30:29;;;;;;;16.67;10.13;;;11.10;99.90;;;;;;5038414;28;20541;-72
2022/04/23 03:32:56;;;;;;;17.10;10.83;;;11.10;99.90;;;;;;5038328;28;20472;-71
2022/04/23 03:35:23;;;;;;;17.30;11.77;;;11.00;99.90;;;;;;5040632;28;20658;-71
2022/04/23 03:37:51;;;;;;;20.37;10.80;;;11.00;99.90;;;;;;5034527;28;20488;-70
2022/04/23 03:40:18;;;;;;;16.20;12.60;;;11.00;99.90;;;;;;5035170;28;20432;-71
2022/04/23 03:42:48;;;;;;;17.27;12.30;;;11.10;99.90;;;;;;5041581;28;20941;-70
2022/04/23 03:45:16;;;;;;;16.10;9.57;;;11.20;99.90;;;;;;5035730;28;21138;-71
2022/04/23 03:47:46;;;;;;;23.33;12.00;;;11.20;99.90;;;;;;5036754;28;20427;-72
2022/04/23 03:50:13;;;;;;;11.50;8.47;;;11.20;99.90;;;;;;5039343;28;20459;-70
2022/04/23 03:52:40;;;;;;;6.47;5.20;;;11.20;99.90;;;;;;5034915;28;20439;-71
2022/04/23 03:55:11;;;;;;;17.43;12.03;;;11.20;99.90;;;;;;5031858;28;20501;-70
2022/04/23 03:57:46;;;;;;;15.80;8.43;;;11.20;99.90;;;;;;5032799;28;20449;-71
2022/04/23 04:00:14;;;;;;;16.03;11.80;;;11.20;99.90;;;;;;5033413;28;20920;-71
2022/04/23 04:02:42;;;;;;;19.97;9.83;;;11.30;99.90;;;;;;5042555;28;20446;-70
2022/04/23 04:05:10;;;;;;;14.37;9.77;;;11.30;99.90;;;;;;5039152;28;20466;-71
2022/04/23 04:07:47;;;;;;;21.40;12.83;;;11.40;99.90;;;;;;5043925;28;20463;-71
2022/04/23 04:10:17;;;;;;;16.80;8.53;;;11.40;99.90;;;;;;5040076;28;20551;-73
2022/04/23 04:12:44;;;;;;;17.10;10.93;;;11.30;99.90;;;;;;5035141;28;20458;-71
2022/04/23 04:15:15;;;;;;;15.90;10.20;;;11.30;99.90;;;;;;5032547;28;20578;-71
2022/04/23 04:17:43;;;;;;;12.20;7.03;;;11.40;99.90;;;;;;5038505;28;20470;-72
2022/04/23 04:20:12;;;;;;;15.87;8.83;;;11.50;99.90;;;;;;5043490;28;20466;-71
2022/04/23 04:22:39;;;;;;;14.23;9.73;;;11.50;99.90;;;;;;5035979;28;20453;-71
2022/04/23 04:25:07;;;;;;;16.40;10.10;;;11.50;99.90;;;;;;5036375;28;20494;-72
2022/04/23 04:27:35;;;;;;;10.43;7.03;;;11.50;99.90;;;;;;5039399;28;21331;-72
2022/04/23 04:30:04;;;;;;;18.00;10.90;;;11.50;99.90;;;;;;5033751;28;20588;-72
2022/04/23 04:32:31;;;;;;;15.37;12.30;;;11.40;99.90;;;;;;5035546;28;20459;-72
2022/04/23 04:34:58;;;;;;;13.80;7.00;;;11.50;99.90;;;;;;5039304;28;20484;-72
2022/04/23 04:37:25;;;;;;;17.80;11.90;;;11.50;99.90;;;;;;5041215;28;20533;-72
2022/04/23 04:39:51;;;;;;;30.63;9.63;;;11.40;99.90;;;;;;5036016;28;20435;-71
2022/04/23 04:42:18;;;;;;;16.63;8.73;;;11.50;99.90;;;;;;5045224;28;20461;-71
2022/04/23 04:44:46;;;;;;;19.60;11.10;;;11.50;99.90;;;;;;5056378;28;20920;-72
2022/04/23 04:47:13;;;;;;;12.00;9.50;;;11.50;99.90;;;;;;5048162;28;20484;-71
2022/04/23 04:49:40;;;;;;;10.00;5.07;;;11.50;99.90;;;;;;5043968;28;20470;-71
2022/04/23 04:52:07;;;;;;;11.00;5.67;;;11.40;99.90;;;;;;5039253;28;20468;-72
2022/04/23 04:54:34;;;;;;;20.67;12.20;;;11.50;99.90;;;;;;5044653;28;20521;-71
2022/04/23 04:57:02;;;;;;;6.03;3.97;;;11.50;99.90;;;;;;5047296;28;21169;-71
2022/04/23 04:59:30;;;;;;;8.10;5.70;;;11.50;99.90;;;;;;5036752;28;20431;-71
2022/04/23 05:02:00;;;;;;;17.20;11.13;;;11.40;99.90;;;;;;5036766;28;20813;-71
2022/04/23 05:04:27;;;;;;;24.13;12.20;;;11.40;99.90;;;;;;5041916;28;20483;-71
2022/04/23 05:06:54;;;;;;;18.47;11.67;;;11.40;99.90;;;;;;5038950;28;20545;-73
2022/04/23 05:09:20;;;;;;;17.50;7.37;;;11.40;99.90;;;;;;5041877;28;20468;-71
2022/04/23 05:11:47;;;;;;;10.77;7.90;;;11.30;99.90;;;;;;5043834;28;20536;-71
2022/04/23 05:14:13;;;;;;;16.23;9.20;;;11.30;99.90;;;;;;5038534;28;20535;-71
2022/04/23 05:16:40;;;;;;;11.90;7.60;;;11.40;99.90;;;;;;5041395;28;20427;-71
2022/04/23 05:19:08;;;;;;;22.03;12.50;;;11.40;99.90;;;;;;5045224;28;20520;-70
2022/04/23 05:21:35;;;;;;;8.00;6.73;;;11.40;99.90;;;;;;5037483;28;21182;-71
2022/04/23 05:24:01;;;;;;;11.13;7.43;;;11.40;99.90;;;;;;5042559;28;20453;-70
2022/04/23 05:26:28;;;;;;;23.30;11.47;;;11.40;99.90;;;;;;5044001;28;20966;-71
2022/04/23 05:28:55;;;;;;;13.43;9.07;;;11.40;99.90;;;;;;5040887;28;20826;-71
2022/04/23 05:31:22;;;;;;;13.50;9.27;;;11.50;99.90;;;;;;5041106;28;20469;-71
2022/04/23 05:33:48;;;;;;;15.27;9.27;;;11.60;99.90;;;;;;5040790;28;20455;-71
2022/04/23 05:36:16;;;;;;;12.03;9.13;;;11.60;99.90;;;;;;5046286;28;20590;-71
2022/04/23 05:38:46;;;;;;;14.53;10.50;;;11.90;99.90;;;;;;5035103;28;20965;-71
2022/04/23 05:41:18;;;;;;;7.93;6.63;;;12.10;99.90;;;;;;5037287;28;20495;-71
2022/04/23 05:43:46;;;;;;;26.30;10.03;;;12.20;99.90;;;;;;5041065;28;20451;-71
2022/04/23 05:46:15;;;;;;;18.87;13.53;;;12.40;99.90;;;;;;5043051;28;20491;-71
2022/04/23 05:48:42;;;;;;;20.00;13.07;;;12.40;99.90;;;;;;5041050;28;20510;-70
2022/04/23 05:51:09;;;;;;;16.57;13.47;;;12.40;99.90;;;;;;5043273;28;20444;-70
2022/04/23 05:53:37;;;;;;;12.50;6.70;;;12.70;99.90;;;;;;5038875;28;20468;-72
2022/04/23 05:56:04;;;;;;;16.70;10.67;;;12.80;99.90;;;;;;5037183;28;20560;-72
2022/04/23 05:58:31;;;;;;;4.47;4.07;;;12.90;99.90;;;;;;5035402;28;20468;-71
2022/04/23 06:01:00;;;;;;;11.20;8.33;;;12.70;99.90;;;;;;5041475;28;20426;-70
2022/04/23 06:03:30;;;;;;;5.83;4.90;;;12.60;99.90;;;;;;5032070;28;20479;-71
2022/04/23 06:05:56;;;;;;;4.57;4.17;;;12.70;99.90;;;;;;5035981;28;20503;-71
2022/04/23 06:08:24;;;;;;;11.07;7.77;;;12.70;99.90;;;;;;5041636;28;20458;-70
2022/04/23 06:10:55;;;;;;;12.60;7.67;;;12.70;99.90;;;;;;5037829;28;20486;-70
2022/04/23 06:13:22;;;;;;;17.30;10.07;;;12.90;99.90;;;;;;5042372;28;20499;-71
2022/04/23 06:15:48;;;;;;;8.33;6.10;;;13.00;99.90;;;;;;5043021;28;20538;-70
2022/04/23 06:18:15;;;;;;;16.43;12.20;;;13.00;99.90;;;;;;5042443;28;20817;-71
2022/04/23 06:20:42;;;;;;;17.90;10.67;;;13.10;99.90;;;;;;5042625;28;20498;-71
2022/04/23 06:23:08;;;;;;;7.30;6.60;;;13.30;99.90;;;;;;5039417;28;20463;-71
2022/04/23 06:25:36;;;;;;;11.70;7.10;;;13.30;99.90;;;;;;5036925;28;20462;-71
2022/04/23 06:28:05;;;;;;;16.17;9.17;;;13.50;99.90;;;;;;5040752;28;20480;-71
2022/04/23 06:30:31;;;;;;;14.37;9.70;;;13.60;99.90;;;;;;5033127;28;20438;-70
2022/04/23 06:32:58;;;;;;;17.70;9.63;;;13.60;99.90;;;;;;5032093;28;20915;-71
2022/04/23 06:35:25;;;;;;;16.37;11.80;;;13.60;99.90;;;;;;5038623;28;20960;-71
2022/04/23 06:37:54;;;;;;;11.93;6.93;;;13.70;99.90;;;;;;5043038;28;20824;-71
2022/04/23 06:40:20;;;;;;;14.90;9.50;;;13.80;99.90;;;;;;5036265;28;20578;-71
2022/04/23 06:42:50;;;;;;;19.17;9.97;;;13.90;99.90;;;;;;5040153;28;20845;-72
2022/04/23 06:45:19;;;;;;;12.97;8.23;;;14.20;99.90;;;;;;5039900;28;20503;-71
2022/04/23 06:47:46;;;;;;;5.37;4.87;;;14.10;99.90;;;;;;5039402;28;20485;-72
2022/04/23 06:50:12;;;;;;;16.47;10.13;;;14.00;99.90;;;;;;5034916;28;20460;-71
2022/04/23 06:52:39;;;;;;;8.67;7.00;;;14.20;99.90;;;;;;5034322;28;20988;-72
2022/04/23 06:55:07;;;;;;;15.30;11.17;;;14.30;99.90;;;;;;5031442;28;20488;-71
2022/04/23 06:57:42;;;;;;;19.23;11.87;;;14.30;99.90;;;;;;5037926;28;20444;-72
2022/04/23 07:00:11;;;;;;;15.73;11.90;;;14.60;99.90;;;;;;5043490;28;20575;-72
2022/04/23 07:02:41;;;;;;;9.87;6.33;;;14.70;99.90;;;;;;5039180;28;20510;-71
2022/04/23 07:05:09;;;;;;;18.13;11.73;;;14.70;99.90;;;;;;5041300;28;20493;-71
2022/04/23 07:07:35;;;;;;;11.80;9.07;;;14.90;99.90;;;;;;5043699;28;20510;-72
2022/04/23 07:10:02;;;;;;;8.30;7.60;;;14.90;99.90;;;;;;5044130;28;20460;-72
2022/04/23 07:12:32;;;;;;;15.23;7.60;;;14.90;99.90;;;;;;5032224;28;20457;-71
2022/04/23 07:14:59;;;;;;;19.80;12.40;;;14.90;99.90;;;;;;5041717;28;20472;-70
2022/04/23 07:17:27;;;;;;;14.97;8.93;;;15.10;99.90;;;;;;5042409;28;21022;-70
2022/04/23 07:19:55;;;;;;;35.30;12.73;;;15.40;99.90;;;;;;5039806;28;20470;-70
2022/04/23 07:22:21;;;;;;;16.53;10.20;;;15.40;99.90;;;;;;5036919;28;20468;-71
2022/04/23 07:24:51;;;;;;;19.97;13.53;;;15.40;99.90;;;;;;5041816;28;20826;-70
2022/04/23 07:27:18;;;;;;;17.70;13.43;;;15.60;99.90;;;;;;5034161;28;20487;-70
2022/04/23 07:29:45;;;;;;;24.50;13.90;;;15.70;99.90;;;;;;5044437;28;20466;-71
2022/04/23 07:32:12;;;;;;;16.53;9.20;;;15.70;99.90;;;;;;5037446;28;20460;-71
2022/04/23 07:37:30;;;;;;;18.67;10.27;;;15.80;99.90;;;;;;5036642;28;20458;-71
2022/04/23 07:39:58;;;;;;;18.03;12.30;;;15.90;99.90;;;;;;5031958;28;20464;-72
2022/04/23 07:42:24;;;;;;;15.30;9.27;;;16.50;99.90;;;;;;5038615;28;20468;-71
2022/04/23 07:44:54;;;;;;;15.30;10.60;;;16.80;99.90;;;;;;5044400;28;20496;-71
2022/04/23 07:47:21;;;;;;;23.20;14.23;;;16.60;99.90;;;;;;5038021;28;20484;-70
2022/04/23 07:49:48;;;;;;;25.90;14.30;;;16.60;99.90;;;;;;5034300;28;20465;-71
2022/04/23 07:52:14;;;;;;;11.80;7.50;;;16.50;99.90;;;;;;5036776;28;20456;-71
2022/04/23 07:54:43;;;;;;;13.53;8.73;;;16.30;99.90;;;;;;5041648;28;20591;-71
2022/04/23 07:57:11;;;;;;;16.10;8.93;;;16.20;99.90;;;;;;5037109;28;20550;-71
2022/04/23 07:59:41;;;;;;;19.13;12.63;;;16.30;99.90;;;;;;5035527;28;20471;-71
2022/04/23 08:02:08;;;;;;;19.10;12.00;;;16.50;99.90;;;;;;5034085;28;20934;-71
2022/04/23 08:04:34;;;;;;;15.47;10.10;;;16.80;99.90;;;;;;5041853;28;21007;-71
2022/04/23 08:07:01;;;;;;;13.30;8.07;;;17.10;99.90;;;;;;5078631;22;20500;-71
2022/04/23 08:09:28;;;;;;;12.47;8.90;;;17.20;99.90;;;;;;5025949;28;20461;-69
2022/04/23 08:11:56;;;;;;;22.77;14.87;;;17.00;99.90;;;;;;5023736;28;20464;-69
2022/04/23 08:14:23;;;;;;;18.40;13.90;;;17.50;99.90;;;;;;5023416;28;20465;-71
2022/04/23 08:16:50;;;;;;;26.20;16.20;;;17.30;99.90;;;;;;5006032;28;20474;-71
2022/04/23 08:19:18;;;;;;;20.07;12.17;;;17.30;99.90;;;;;;5013241;28;20442;-70
2022/04/23 08:21:45;;;;;;;17.07;10.77;;;17.30;99.90;;;;;;5008090;28;20842;-70
2022/04/23 08:24:12;;;;;;;16.53;12.23;;;17.50;99.90;;;;;;4998601;28;20494;-70
2022/04/23 08:26:41;;;;;;;13.20;8.23;;;17.60;99.90;;;;;;5004371;28;20831;-70
2022/04/23 08:31:53;;;;;;;20.70;13.23;;;17.70;99.90;;;;;;5011191;28;20941;-70
2022/04/23 08:34:20;;;;;;;18.03;13.17;;;17.70;99.90;;;;;;5005042;28;20462;-69
2022/04/23 08:36:49;;;;;;;17.23;11.40;;;17.80;99.90;;;;;;5004617;28;20979;-70
2022/04/23 08:39:17;;;;;;;19.20;11.10;;;18.40;99.90;;;;;;4997381;28;20465;-72
2022/04/23 08:41:46;;;;;;;12.97;8.97;;;18.10;99.90;;;;;;5005935;28;20461;-72
2022/04/23 08:44:16;;;;;;;9.33;7.93;;;18.50;99.90;;;;;;5005935;28;20458;-72
2022/04/23 08:46:42;;;;;;;26.10;13.03;;;18.40;99.90;;;;;;5008047;28;21010;-70
2022/04/23 08:49:13;;;;;;;10.90;6.03;;;18.90;99.90;;;;;;5000077;28;20462;-70
2022/04/23 08:51:42;;;;;;;20.73;14.23;;;19.50;99.90;;;;;;5001793;28;20469;-70
2022/04/23 08:54:10;;;;;;;17.47;8.07;;;19.50;99.90;;;;;;4998270;28;20541;-70
2022/04/23 08:56:38;;;;;;;12.20;6.40;;;19.20;99.90;;;;;;5004941;28;20485;-70
2022/04/23 08:59:07;;;;;;;16.23;11.53;;;18.80;99.90;;;;;;5009352;28;20886;-71
2022/04/23 09:01:36;;;;;;;19.57;13.47;;;18.50;99.90;;;;;;5000112;28;20445;-71
2022/04/23 09:04:04;;;;;;;10.80;6.67;;;18.60;99.90;;;;;;5007189;28;20463;-70
2022/04/23 09:06:38;;;;;;;15.63;9.13;;;18.90;99.90;;;;;;4994294;28;20578;-70
2022/04/23 09:09:13;;;;;;;18.13;10.50;;;19.30;99.90;;;;;;4997758;28;20496;-70
2022/04/23 09:11:42;;;;;;;17.23;9.00;;;19.30;99.90;;;;;;5006949;28;20813;-71
2022/04/23 09:14:10;;;;;;;19.73;8.87;;;18.80;99.90;;;;;;5006475;28;20470;-69
2022/04/23 09:25:07;;;;;;;6.70;5.40;;;19.50;99.90;;;;;;5008413;28;20541;-71
2022/04/23 09:27:35;;;;;;;13.53;9.20;;;20.10;99.90;;;;;;4999865;28;21191;-71
2022/04/23 09:30:03;;;;;;;9.77;6.27;;;20.30;99.90;;;;;;5007490;28;20466;-71
2022/04/23 09:32:31;;;;;;;10.53;9.13;;;20.20;99.90;;;;;;5011024;28;20489;-71
2022/04/23 09:35:07;;;;;;;13.17;8.00;;;19.60;99.90;;;;;;4992030;28;20471;-71
2022/04/23 09:40:19;;;;;;;15.63;12.03;;;19.60;99.90;;;;;;5003970;28;20451;-71
2022/04/23 09:42:56;;;;;;;15.77;9.60;;;20.30;99.90;;;;;;5006649;28;21025;-71
2022/04/23 09:45:27;;;;;;;13.63;10.27;;;20.20;99.90;;;;;;5003109;28;20469;-71
2022/04/23 09:47:55;;;;;;;13.90;10.87;;;20.60;99.90;;;;;;5002728;28;20583;-70
2022/04/23 09:50:21;;;;;;;15.60;10.60;;;20.60;99.90;;;;;;5013563;28;20541;-71
2022/04/23 09:52:49;;;;;;;11.77;9.17;;;20.50;99.90;;;;;;4999981;28;20459;-70
2022/04/23 09:55:18;;;;;;;16.50;10.77;;;20.90;99.90;;;;;;5003942;28;20493;-71
2022/04/23 09:57:46;;;;;;;19.17;13.30;;;20.80;99.90;;;;;;5007540;28;20842;-72
2022/04/23 10:00:13;;;;;;;17.40;8.30;;;20.60;99.90;;;;;;5002282;28;20465;-72
2022/04/23 10:02:42;;;;;;;22.33;13.93;;;20.60;99.90;;;;;;4995234;28;20461;-71
2022/04/23 10:05:11;;;;;;;22.10;14.47;;;20.70;99.90;;;;;;5008623;28;20531;-71
2022/04/23 10:07:40;;;;;;;21.40;14.73;;;20.70;99.90;;;;;;5011785;28;20593;-71
2022/04/23 10:10:12;;;;;;;20.90;13.53;;;20.90;99.90;;;;;;5008001;28;20462;-72
2022/04/23 10:12:41;;;;;;;13.13;9.67;;;21.00;99.90;;;;;;5002274;28;20454;-70
2022/04/23 10:15:09;;;;;;;18.20;12.03;;;21.00;99.90;;;;;;4994503;28;20584;-70
2022/04/23 10:17:38;;;;;;;13.47;9.10;;;21.40;99.90;;;;;;5008612;28;20595;-71
2022/04/23 10:20:05;;;;;;;16.33;11.77;;;22.00;99.90;;;;;;5001344;28;20462;-71
2022/04/23 10:22:44;;;;;;;15.67;10.10;;;21.70;99.90;;;;;;5005986;28;20545;-72
2022/04/23 10:25:22;;;;;;;20.30;14.50;;;21.30;99.90;;;;;;5007797;28;20833;-71
2022/04/23 10:27:49;;;;;;;15.40;10.43;;;20.90;99.90;;;;;;5003851;28;20489;-71
2022/04/23 10:30:16;;;;;;;8.30;7.37;;;21.30;99.90;;;;;;4998205;28;20462;-70
2022/04/23 10:32:44;;;;;;;15.20;12.03;;;21.20;99.90;;;;;;5000813;28;20475;-71
2022/04/23 10:35:33;;;;;;;9.93;5.50;;;21.30;99.90;;;;;;5004753;28;20458;-69
2022/04/23 10:38:19;;;;;;;8.90;6.80;;;22.00;99.90;;;;;;5000892;28;20478;-71
2022/04/23 10:40:47;;;;;;;14.20;11.40;;;21.60;99.90;;;;;;5008213;28;20454;-71
2022/04/23 10:43:19;;;;;;;18.70;12.77;;;22.20;99.90;;;;;;5007464;28;20464;-71
2022/04/23 10:45:46;;;;;;;16.07;12.20;;;21.90;99.90;;;;;;4998718;28;22072;-71
2022/04/23 10:48:26;;;;;;;15.80;11.37;;;22.60;99.90;;;;;;4991072;28;20496;-72
2022/04/23 10:51:03;;;;;;;11.57;8.20;;;22.00;99.40;;;;;;5007862;28;20496;-71
2022/04/23 10:53:58;;;;;;;11.83;8.77;;;21.80;99.90;;;;;;5006340;28;21005;-71
2022/04/23 10:56:26;;;;;;;10.77;7.97;;;22.10;99.40;;;;;;5007278;28;20481;-71
2022/04/23 10:58:53;;;;;;;11.40;9.17;;;21.80;99.40;;;;;;5007631;28;20877;-70
2022/04/23 11:01:25;;;;;;;16.60;10.27;;;21.90;98.70;;;;;;5000283;28;20469;-71
2022/04/23 11:04:10;;;;;;;11.43;9.80;;;22.10;99.10;;;;;;5003612;28;20562;-70
2022/04/23 11:12:34;;;;;;;9.77;6.80;;;22.00;98.20;;;;;;5000559;28;20586;-70
2022/04/23 11:15:02;;;;;;;10.27;8.53;;;21.40;98.60;;;;;;5007664;28;20473;-71
2022/04/23 11:17:53;;;;;;;18.47;11.53;;;22.00;98.60;;;;;;4999132;28;21823;-72
2022/04/23 11:20:39;;;;;;;15.70;10.60;;;21.90;98.80;;;;;;5000365;28;20473;-74
2022/04/23 11:23:07;;;;;;;7.70;5.83;;;22.80;97.60;;;;;;5000949;28;20462;-69
2022/04/23 11:25:35;;;;;;;12.37;7.30;;;22.80;96.60;;;;;;5003004;28;20467;-70
2022/04/23 11:28:16;;;;;;;11.87;8.20;;;21.90;96.70;;;;;;5004149;28;20495;-69
2022/04/23 11:30:42;;;;;;;11.73;6.73;;;21.80;96.90;;;;;;4999217;28;20466;-70
2022/04/23 11:33:11;;;;;;;10.70;9.30;;;21.90;97.30;;;;;;5003344;28;20507;-69
2022/04/23 11:35:38;;;;;;;8.03;7.23;;;21.20;97.20;;;;;;5000851;28;20513;-70
2022/04/23 11:38:04;;;;;;;14.93;10.03;;;20.90;97.90;;;;;;5002999;28;21003;-70
2022/04/23 11:40:36;;;;;;;11.50;5.23;;;21.70;97.60;;;;;;4990311;28;20462;-70
2022/04/23 11:43:03;;;;;;;15.17;9.93;;;21.80;96.40;;;;;;4999505;28;20584;-70
2022/04/23 11:45:29;;;;;;;16.40;11.17;;;21.70;96.40;;;;;;5007434;28;20470;-70
2022/04/23 11:47:56;;;;;;;13.13;8.17;;;21.70;95.40;;;;;;5007258;28;20553;-70
2022/04/23 11:50:23;;;;;;;8.77;7.90;;;21.10;96.40;;;;;;5003802;28;20555;-71
2022/04/23 11:52:58;;;;;;;15.30;10.83;;;21.00;96.50;;;;;;4999877;28;20450;-70
2022/04/23 11:55:27;;;;;;;20.10;11.40;;;20.80;96.60;;;;;;5010814;28;20454;-70
2022/04/23 11:57:59;;;;;;;11.27;8.37;;;20.70;96.70;;;;;;5003069;28;20477;-70
2022/04/23 12:00:26;;;;;;;8.93;7.30;;;20.40;96.70;;;;;;5007559;28;20461;-70
2022/04/23 12:02:53;;;;;;;10.90;7.70;;;20.30;97.70;;;;;;5004309;28;21049;-70
2022/04/23 12:05:24;;;;;;;9.93;8.80;;;19.80;98.60;;;;;;5013351;28;20516;-70
2022/04/23 12:07:51;;;;;;;15.77;9.73;;;19.40;98.40;;;;;;4995602;28;20998;-71
2022/04/23 12:10:24;;;;;;;13.10;9.40;;;19.80;99.10;;;;;;5003262;28;20527;-70
2022/04/23 12:12:51;;;;;;;12.37;8.30;;;21.10;96.90;;;;;;5000789;28;20461;-70
2022/04/23 12:15:23;;;;;;;15.33;9.77;;;20.70;96.80;;;;;;5006631;28;20457;-71
2022/04/23 12:17:51;;;;;;;12.47;9.17;;;20.20;97.10;;;;;;4998830;28;20520;-71
2022/04/23 12:20:19;;;;;;;14.57;8.87;;;19.90;97.70;;;;;;5003527;28;21013;-70
2022/04/23 12:22:58;;;;;;;7.30;6.43;;;19.90;98.50;;;;;;5004060;28;20466;-69
2022/04/23 12:25:25;;;;;;;9.03;5.47;;;19.80;98.10;;;;;;4997970;28;20969;-70
2022/04/23 12:28:00;;;;;;;10.10;4.83;;;19.40;98.90;;;;;;5001083;28;20489;-70
2022/04/23 12:41:40;;;;;;;18.80;12.13;;;19.20;98.70;;;;;;5014671;28;20859;-70
2022/04/23 12:44:20;;;;;;;8.40;5.80;;;19.50;98.80;;;;;;5004874;28;21038;-69
2022/04/23 12:46:58;;;;;;;10.00;6.10;;;19.50;98.60;;;;;;5005756;28;20602;-70
2022/04/23 12:49:41;;;;;;;12.77;8.40;;;19.30;98.60;;;;;;5005941;28;20535;-71
2022/04/23 12:52:13;;;;;;;8.77;5.13;;;19.10;99.80;;;;;;5006534;28;20479;-70
2022/04/23 12:54:40;;;;;;;11.37;8.87;;;19.00;99.30;;;;;;5001593;28;20493;-70
2022/04/23 12:57:14;;;;;;;9.70;5.80;;;18.90;99.40;;;;;;5009867;28;21079;-70
2022/04/23 12:59:41;;;;;;;9.70;7.77;;;19.10;98.70;;;;;;5014057;28;20445;-70
2022/04/23 13:02:09;;;;;;;23.80;9.93;;;18.90;98.90;;;;;;5002741;28;20466;-70
2022/04/23 13:04:36;;;;;;;13.10;9.00;;;18.70;99.20;;;;;;4999517;28;20458;-70
2022/04/23 13:09:48;;;;;;;5.23;4.40;;;18.60;99.60;;;;;;5004233;28;20959;-70
2022/04/23 13:12:14;;;;;;;11.93;8.47;;;18.80;99.30;;;;;;5004466;28;20486;-70
2022/04/23 13:14:42;;;;;;;7.67;6.57;;;19.00;99.90;;;;;;5008069;28;20457;-72
2022/04/23 13:17:10;;;;;;;6.20;5.50;;;19.10;99.50;;;;;;5003794;28;20508;-70
2022/04/23 13:19:38;;;;;;;5.70;4.67;;;19.50;98.40;;;;;;5000510;28;20463;-70